Terminal Aerodrome Forecast
Issued by NWS Burlington, VT

Home | Current Version | Previous Version | Text Only | Print | Product List | Glossary On
Versions: 1 2 3 4 5 6 7 8 9 10 11 12 13
000
FTUS41 KBTV 241126
TAFBTV
TAF
KBTV 241126Z 2412/2512 19012G20KT P6SM SCT120
     FM241600 23015G28KT P6SM SCT120
     FM250000 20009KT P6SM SCT250
     FM250800 18008KT P6SM BKN150
     FM251100 18010KT P6SM SCT060 OVC100=

USA.gov is the U.S. government's official web portal to all federal, state and local government web resources and services.